sensor_id;sensor_type;location;lat;lon;timestamp;temperature;humidity
3478;DHT22;37937;61.490;23.506;2022-12-11T00:00:17;-2.90;99.90
3478;DHT22;37937;61.490;23.506;2022-12-11T00:02:42;-2.90;99.90
3478;DHT22;37937;61.490;23.506;2022-12-11T00:05:08;-2.90;99.90
3478;DHT22;37937;61.490;23.506;2022-12-11T00:07:34;-2.90;99.90
3478;DHT22;37937;61.490;23.506;2022-12-11T00:09:59;-2.90;99.90
3478;DHT22;37937;61.490;23.506;2022-12-11T00:12:25;-3.00;99.90
3478;DHT22;37937;61.490;23.506;2022-12-11T00:14:51;-3.00;99.90
3478;DHT22;37937;61.490;23.506;2022-12-11T00:17:17;-3.00;99.90
3478;DHT22;37937;61.490;23.506;2022-12-11T00:19:42;-3.00;99.90
3478;DHT22;37937;61.490;23.506;2022-12-11T00:22:08;-3.10;99.90
3478;DHT22;37937;61.490;23.506;2022-12-11T00:24:33;-3.00;99.90
3478;DHT22;37937;61.490;23.506;2022-12-11T00:26:59;-3.10;99.90
3478;DHT22;37937;61.490;23.506;2022-12-11T00:29:24;-3.00;99.90
3478;DHT22;37937;61.490;23.506;2022-12-11T00:31:50;-3.10;99.90
3478;DHT22;37937;61.490;23.506;2022-12-11T00:34:16;-3.10;99.90
3478;DHT22;37937;61.490;23.506;2022-12-11T00:36:41;-3.10;99.90
3478;DHT22;37937;61.490;23.506;2022-12-11T00:39:07;-3.10;99.90
3478;DHT22;37937;61.490;23.506;2022-12-11T00:41:32;-3.00;99.90
3478;DHT22;37937;61.490;23.506;2022-12-11T00:43:58;-3.00;99.90
3478;DHT22;37937;61.490;23.506;2022-12-11T00:46:24;-3.00;99.90
3478;DHT22;37937;61.490;23.506;2022-12-11T00:48:49;-3.10;99.90
3478;DHT22;37937;61.490;23.506;2022-12-11T00:51:16;-3.00;99.90
3478;DHT22;37937;61.490;23.506;2022-12-11T00:53:42;-3.00;99.90
3478;DHT22;37937;61.490;23.506;2022-12-11T00:56:09;-3.00;99.90
3478;DHT22;37937;61.490;23.506;2022-12-11T00:58:34;-3.00;99.90
3478;DHT22;37937;61.490;23.506;2022-12-11T01:01:10;-3.00;99.90
3478;DHT22;37937;61.490;23.506;2022-12-11T01:03:36;-3.00;99.90
3478;DHT22;37937;61.490;23.506;2022-12-11T01:06:02;-3.10;99.90
3478;DHT22;37937;61.490;23.506;2022-12-11T01:08:28;-3.10;99.90
3478;DHT22;37937;61.490;23.506;2022-12-11T01:11:00;-3.10;99.90
3478;DHT22;37937;61.490;23.506;2022-12-11T01:13:26;-3.00;99.90
3478;DHT22;37937;61.490;23.506;2022-12-11T01:15:52;-3.00;99.90
3478;DHT22;37937;61.490;23.506;2022-12-11T01:18:17;-3.00;99.90
3478;DHT22;37937;61.490;23.506;2022-12-11T01:20:43;-3.00;99.90
3478;DHT22;37937;61.490;23.506;2022-12-11T01:23:09;-3.10;99.90
3478;DHT22;37937;61.490;23.506;2022-12-11T01:25:35;-3.10;99.90
3478;DHT22;37937;61.490;23.506;2022-12-11T01:28:02;-3.00;99.90
3478;DHT22;37937;61.490;23.506;2022-12-11T01:30:28;-3.00;99.90
3478;DHT22;37937;61.490;23.506;2022-12-11T01:32:54;-3.10;99.90
3478;DHT22;37937;61.490;23.506;2022-12-11T01:35:19;-3.10;99.90
3478;DHT22;37937;61.490;23.506;2022-12-11T01:37:45;-3.10;99.90
3478;DHT22;37937;61.490;23.506;2022-12-11T01:40:12;-3.10;99.90
3478;DHT22;37937;61.490;23.506;2022-12-11T01:42:38;-3.20;99.90
3478;DHT22;37937;61.490;23.506;2022-12-11T01:47:48;-3.20;99.90
3478;DHT22;37937;61.490;23.506;2022-12-11T01:50:14;-3.20;99.90
3478;DHT22;37937;61.490;23.506;2022-12-11T01:52:40;-3.20;99.90
3478;DHT22;37937;61.490;23.506;2022-12-11T01:55:07;-3.20;99.90
3478;DHT22;37937;61.490;23.506;2022-12-11T01:57:35;-3.20;99.90
3478;DHT22;37937;61.490;23.506;2022-12-11T02:00:00;-3.30;99.90
3478;DHT22;37937;61.490;23.506;2022-12-11T02:02:27;-3.30;99.90
3478;DHT22;37937;61.490;23.506;2022-12-11T02:04:53;-3.30;99.90
3478;DHT22;37937;61.490;23.506;2022-12-11T02:07:19;-3.30;99.90
3478;DHT22;37937;61.490;23.506;2022-12-11T02:09:45;-3.30;99.90
3478;DHT22;37937;61.490;23.506;2022-12-11T02:14:47;-3.30;99.90
3478;DHT22;37937;61.490;23.506;2022-12-11T02:17:20;-3.30;99.90
3478;DHT22;37937;61.490;23.506;2022-12-11T02:22:14;-3.30;99.90
3478;DHT22;37937;61.490;23.506;2022-12-11T02:27:46;-3.40;99.90
3478;DHT22;37937;61.490;23.506;2022-12-11T02:30:12;-3.30;99.90
3478;DHT22;37937;61.490;23.506;2022-12-11T02:35:18;-3.40;99.90
3478;DHT22;37937;61.490;23.506;2022-12-11T02:37:45;-3.40;99.90
3478;DHT22;37937;61.490;23.506;2022-12-11T02:40:12;-3.40;99.90
3478;DHT22;37937;61.490;23.506;2022-12-11T02:42:39;-3.40;99.90
3478;DHT22;37937;61.490;23.506;2022-12-11T02:45:06;-3.50;99.90
3478;DHT22;37937;61.490;23.506;2022-12-11T02:47:33;-3.40;99.90
3478;DHT22;37937;61.490;23.506;2022-12-11T02:49:59;-3.40;99.90
3478;DHT22;37937;61.490;23.506;2022-12-11T02:52:26;-3.40;99.90
3478;DHT22;37937;61.490;23.506;2022-12-11T02:54:52;-3.40;99.90
3478;DHT22;37937;61.490;23.506;2022-12-11T02:57:39;-3.50;99.90
3478;DHT22;37937;61.490;23.506;2022-12-11T03:00:07;-3.40;99.90
3478;DHT22;37937;61.490;23.506;2022-12-11T03:02:32;-3.40;99.90
3478;DHT22;37937;61.490;23.506;2022-12-11T03:04:58;-3.40;99.90
3478;DHT22;37937;61.490;23.506;2022-12-11T03:07:25;-3.40;99.90
3478;DHT22;37937;61.490;23.506;2022-12-11T03:09:51;-3.40;99.90
3478;DHT22;37937;61.490;23.506;2022-12-11T03:12:26;-3.40;99.90
3478;DHT22;37937;61.490;23.506;2022-12-11T03:14:52;-3.40;99.90
3478;DHT22;37937;61.490;23.506;2022-12-11T03:17:20;-3.40;99.90
3478;DHT22;37937;61.490;23.506;2022-12-11T03:22:15;-3.40;99.90
3478;DHT22;37937;61.490;23.506;2022-12-11T03:24:45;-3.40;99.90
3478;DHT22;37937;61.490;23.506;2022-12-11T03:29:42;-3.40;99.90
3478;DHT22;37937;61.490;23.506;2022-12-11T03:32:12;-3.50;99.90
3478;DHT22;37937;61.490;23.506;2022-12-11T03:37:13;-3.40;99.90
3478;DHT22;37937;61.490;23.506;2022-12-11T03:39:41;-3.40;99.90
3478;DHT22;37937;61.490;23.506;2022-12-11T03:42:09;-3.40;99.90
3478;DHT22;37937;61.490;23.506;2022-12-11T03:44:36;-3.40;99.90
3478;DHT22;37937;61.490;23.506;2022-12-11T03:47:02;-3.40;99.90
3478;DHT22;37937;61.490;23.506;2022-12-11T03:49:32;-3.40;99.90
3478;DHT22;37937;61.490;23.506;2022-12-11T03:51:58;-3.40;99.90
3478;DHT22;37937;61.490;23.506;2022-12-11T03:54:25;-3.40;99.90
3478;DHT22;37937;61.490;23.506;2022-12-11T03:56:52;-3.40;99.90
3478;DHT22;37937;61.490;23.506;2022-12-11T03:59:19;-3.50;99.90
3478;DHT22;37937;61.490;23.506;2022-12-11T04:01:44;-3.40;99.90
3478;DHT22;37937;61.490;23.506;2022-12-11T04:04:10;-3.40;99.90
3478;DHT22;37937;61.490;23.506;2022-12-11T04:06:35;-3.40;99.90
3478;DHT22;37937;61.490;23.506;2022-12-11T04:09:01;-3.40;99.90
3478;DHT22;37937;61.490;23.506;2022-12-11T04:11:27;-3.50;99.90
3478;DHT22;37937;61.490;23.506;2022-12-11T04:13:59;-3.40;99.90
3478;DHT22;37937;61.490;23.506;2022-12-11T04:16:43;-3.40;99.90
3478;DHT22;37937;61.490;23.506;2022-12-11T04:19:08;-3.40;99.90
3478;DHT22;37937;61.490;23.506;2022-12-11T04:21:53;-3.50;99.90
3478;DHT22;37937;61.490;23.506;2022-12-11T04:24:37;-3.50;99.90
3478;DHT22;37937;61.490;23.506;2022-12-11T04:27:03;-3.40;99.90
3478;DHT22;37937;61.490;23.506;2022-12-11T04:29:28;-3.40;99.90
3478;DHT22;37937;61.490;23.506;2022-12-11T04:31:54;-3.40;99.90
3478;DHT22;37937;61.490;23.506;2022-12-11T04:34:19;-3.40;99.90
3478;DHT22;37937;61.490;23.506;2022-12-11T04:36:45;-3.40;99.90
3478;DHT22;37937;61.490;23.506;2022-12-11T04:39:11;-3.40;99.90
3478;DHT22;37937;61.490;23.506;2022-12-11T04:41:36;-3.40;99.90
3478;DHT22;37937;61.490;23.506;2022-12-11T04:44:03;-3.40;99.90
3478;DHT22;37937;61.490;23.506;2022-12-11T04:46:29;-3.40;99.90
3478;DHT22;37937;61.490;23.506;2022-12-11T04:48:55;-3.40;99.90
3478;DHT22;37937;61.490;23.506;2022-12-11T04:51:21;-3.40;99.90
3478;DHT22;37937;61.490;23.506;2022-12-11T04:53:46;-3.40;99.90
3478;DHT22;37937;61.490;23.506;2022-12-11T04:56:13;-3.40;99.90
3478;DHT22;37937;61.490;23.506;2022-12-11T04:58:39;-3.40;99.90
3478;DHT22;37937;61.490;23.506;2022-12-11T05:01:09;-3.40;99.90
3478;DHT22;37937;61.490;23.506;2022-12-11T05:03:35;-3.40;99.90
3478;DHT22;37937;61.490;23.506;2022-12-11T05:06:00;-3.40;99.90
3478;DHT22;37937;61.490;23.506;2022-12-11T05:08:26;-3.50;99.90
3478;DHT22;37937;61.490;23.506;2022-12-11T05:10:56;-3.50;99.90
3478;DHT22;37937;61.490;23.506;2022-12-11T05:13:21;-3.60;99.90
3478;DHT22;37937;61.490;23.506;2022-12-11T05:15:47;-3.50;99.90
3478;DHT22;37937;61.490;23.506;2022-12-11T05:18:12;-3.60;99.90
3478;DHT22;37937;61.490;23.506;2022-12-11T05:20:38;-3.60;99.90
3478;DHT22;37937;61.490;23.506;2022-12-11T05:23:04;-3.50;99.90
3478;DHT22;37937;61.490;23.506;2022-12-11T05:25:29;-3.60;99.90
3478;DHT22;37937;61.490;23.506;2022-12-11T05:27:55;-3.60;99.90
3478;DHT22;37937;61.490;23.506;2022-12-11T05:30:20;-3.60;99.90
3478;DHT22;37937;61.490;23.506;2022-12-11T05:32:46;-3.50;99.90
3478;DHT22;37937;61.490;23.506;2022-12-11T05:35:12;-3.50;99.90
3478;DHT22;37937;61.490;23.506;2022-12-11T05:37:37;-3.50;99.90
3478;DHT22;37937;61.490;23.506;2022-12-11T05:40:03;-3.50;99.90
3478;DHT22;37937;61.490;23.506;2022-12-11T05:42:31;-3.50;99.90
3478;DHT22;37937;61.490;23.506;2022-12-11T05:44:56;-3.60;99.90
3478;DHT22;37937;61.490;23.506;2022-12-11T05:47:22;-3.50;99.90
3478;DHT22;37937;61.490;23.506;2022-12-11T05:49:48;-3.50;99.90
3478;DHT22;37937;61.490;23.506;2022-12-11T05:52:13;-3.50;99.90
3478;DHT22;37937;61.490;23.506;2022-12-11T05:54:40;-3.50;99.90
3478;DHT22;37937;61.490;23.506;2022-12-11T05:57:06;-3.60;99.90
3478;DHT22;37937;61.490;23.506;2022-12-11T05:59:32;-3.50;99.90
3478;DHT22;37937;61.490;23.506;2022-12-11T06:01:57;-3.50;99.90
3478;DHT22;37937;61.490;23.506;2022-12-11T06:04:23;-3.50;99.90
3478;DHT22;37937;61.490;23.506;2022-12-11T06:06:48;-3.50;99.90
3478;DHT22;37937;61.490;23.506;2022-12-11T06:09:14;-3.50;99.90
3478;DHT22;37937;61.490;23.506;2022-12-11T06:11:40;-3.50;99.90
3478;DHT22;37937;61.490;23.506;2022-12-11T06:14:07;-3.40;99.90
3478;DHT22;37937;61.490;23.506;2022-12-11T06:16:32;-3.50;99.90
3478;DHT22;37937;61.490;23.506;2022-12-11T06:18:58;-3.50;99.90
3478;DHT22;37937;61.490;23.506;2022-12-11T06:21:25;-3.50;99.90
3478;DHT22;37937;61.490;23.506;2022-12-11T06:23:52;-3.50;99.90
3478;DHT22;37937;61.490;23.506;2022-12-11T06:26:17;-3.50;99.90
3478;DHT22;37937;61.490;23.506;2022-12-11T06:28:44;-3.50;99.90
3478;DHT22;37937;61.490;23.506;2022-12-11T06:31:10;-3.50;99.90
3478;DHT22;37937;61.490;23.506;2022-12-11T06:33:36;-3.50;99.90
3478;DHT22;37937;61.490;23.506;2022-12-11T06:36:05;-3.50;99.90
3478;DHT22;37937;61.490;23.506;2022-12-11T06:38:31;-3.50;99.90
3478;DHT22;37937;61.490;23.506;2022-12-11T06:40:57;-3.50;99.90
3478;DHT22;37937;61.490;23.506;2022-12-11T06:43:23;-3.40;99.90
3478;DHT22;37937;61.490;23.506;2022-12-11T06:45:49;-3.50;99.90
3478;DHT22;37937;61.490;23.506;2022-12-11T06:48:15;-3.40;99.90
3478;DHT22;37937;61.490;23.506;2022-12-11T06:50:40;-3.40;99.90
3478;DHT22;37937;61.490;23.506;2022-12-11T06:53:06;-3.30;99.90
3478;DHT22;37937;61.490;23.506;2022-12-11T06:55:35;-3.30;99.90
3478;DHT22;37937;61.490;23.506;2022-12-11T06:58:01;-3.30;99.90
3478;DHT22;37937;61.490;23.506;2022-12-11T07:00:26;-3.30;99.90
3478;DHT22;37937;61.490;23.506;2022-12-11T07:02:52;-3.30;99.90
3478;DHT22;37937;61.490;23.506;2022-12-11T07:05:18;-3.40;99.90
3478;DHT22;37937;61.490;23.506;2022-12-11T07:07:43;-3.40;99.90
3478;DHT22;37937;61.490;23.506;2022-12-11T07:10:09;-3.40;99.90
3478;DHT22;37937;61.490;23.506;2022-12-11T07:12:35;-3.40;99.90
3478;DHT22;37937;61.490;23.506;2022-12-11T07:15:01;-3.40;99.90
3478;DHT22;37937;61.490;23.506;2022-12-11T07:17:28;-3.40;99.90
3478;DHT22;37937;61.490;23.506;2022-12-11T07:19:53;-3.40;99.90
3478;DHT22;37937;61.490;23.506;2022-12-11T07:22:19;-3.50;99.90
3478;DHT22;37937;61.490;23.506;2022-12-11T07:24:44;-3.50;99.90
3478;DHT22;37937;61.490;23.506;2022-12-11T07:27:10;-3.50;99.90
3478;DHT22;37937;61.490;23.506;2022-12-11T07:29:36;-3.50;99.90
3478;DHT22;37937;61.490;23.506;2022-12-11T07:32:01;-3.50;99.90
3478;DHT22;37937;61.490;23.506;2022-12-11T07:34:27;-3.50;99.90
3478;DHT22;37937;61.490;23.506;2022-12-11T07:36:52;-3.50;99.90
3478;DHT22;37937;61.490;23.506;2022-12-11T07:39:18;-3.50;99.90
3478;DHT22;37937;61.490;23.506;2022-12-11T07:41:44;-3.40;99.90
3478;DHT22;37937;61.490;23.506;2022-12-11T07:44:11;-3.50;99.90
3478;DHT22;37937;61.490;23.506;2022-12-11T07:46:37;-3.50;99.90
3478;DHT22;37937;61.490;23.506;2022-12-11T07:49:03;-3.50;99.90
3478;DHT22;37937;61.490;23.506;2022-12-11T07:51:30;-3.50;99.90
3478;DHT22;37937;61.490;23.506;2022-12-11T07:53:57;-3.50;99.90
3478;DHT22;37937;61.490;23.506;2022-12-11T07:56:23;-3.50;99.90
3478;DHT22;37937;61.490;23.506;2022-12-11T07:58:49;-3.40;99.90
3478;DHT22;37937;61.490;23.506;2022-12-11T08:01:19;-3.40;99.90
3478;DHT22;37937;61.490;23.506;2022-12-11T08:03:45;-3.40;99.90
3478;DHT22;37937;61.490;23.506;2022-12-11T08:06:11;-3.40;99.90
3478;DHT22;37937;61.490;23.506;2022-12-11T08:08:37;-3.40;99.90
3478;DHT22;37937;61.490;23.506;2022-12-11T08:11:04;-3.40;99.90
3478;DHT22;37937;61.490;23.506;2022-12-11T08:13:30;-3.40;99.90
3478;DHT22;37937;61.490;23.506;2022-12-11T08:15:55;-3.40;99.90
3478;DHT22;37937;61.490;23.506;2022-12-11T08:18:21;-3.40;99.90
3478;DHT22;37937;61.490;23.506;2022-12-11T08:20:46;-3.40;99.90
3478;DHT22;37937;61.490;23.506;2022-12-11T08:23:12;-3.40;99.90
3478;DHT22;37937;61.490;23.506;2022-12-11T08:25:38;-3.50;99.90
3478;DHT22;37937;61.490;23.506;2022-12-11T08:28:03;-3.50;99.90
3478;DHT22;37937;61.490;23.506;2022-12-11T08:30:29;-3.50;99.90
3478;DHT22;37937;61.490;23.506;2022-12-11T08:32:54;-3.40;99.90
3478;DHT22;37937;61.490;23.506;2022-12-11T08:35:20;-3.40;99.90
3478;DHT22;37937;61.490;23.506;2022-12-11T08:37:48;-3.40;99.90
3478;DHT22;37937;61.490;23.506;2022-12-11T08:40:13;-3.40;99.90
3478;DHT22;37937;61.490;23.506;2022-12-11T08:42:39;-3.50;99.90
3478;DHT22;37937;61.490;23.506;2022-12-11T08:45:05;-3.40;99.90
3478;DHT22;37937;61.490;23.506;2022-12-11T08:47:31;-3.40;99.90
3478;DHT22;37937;61.490;23.506;2022-12-11T08:49:56;-3.40;99.90
3478;DHT22;37937;61.490;23.506;2022-12-11T08:52:22;-3.40;99.90
3478;DHT22;37937;61.490;23.506;2022-12-11T08:54:47;-3.40;99.90
3478;DHT22;37937;61.490;23.506;2022-12-11T08:57:13;-3.40;99.90
3478;DHT22;37937;61.490;23.506;2022-12-11T08:59:39;-3.40;99.90
3478;DHT22;37937;61.490;23.506;2022-12-11T09:02:04;-3.40;99.90
3478;DHT22;37937;61.490;23.506;2022-12-11T09:04:30;-3.40;99.90
3478;DHT22;37937;61.490;23.506;2022-12-11T09:06:56;-3.40;99.90
3478;DHT22;37937;61.490;23.506;2022-12-11T09:09:21;-3.40;99.90
3478;DHT22;37937;61.490;23.506;2022-12-11T09:11:47;-3.40;99.90
3478;DHT22;37937;61.490;23.506;2022-12-11T09:14:13;-3.40;99.90
3478;DHT22;37937;61.490;23.506;2022-12-11T09:16:40;-3.40;99.90
3478;DHT22;37937;61.490;23.506;2022-12-11T09:19:07;-3.40;99.90
3478;DHT22;37937;61.490;23.506;2022-12-11T09:21:33;-3.40;99.90
3478;DHT22;37937;61.490;23.506;2022-12-11T09:23:59;-3.40;99.90
3478;DHT22;37937;61.490;23.506;2022-12-11T09:26:26;-3.40;99.90
3478;DHT22;37937;61.490;23.506;2022-12-11T09:28:52;-3.40;99.90
3478;DHT22;37937;61.490;23.506;2022-12-11T09:31:19;-3.30;99.90
3478;DHT22;37937;61.490;23.506;2022-12-11T09:33:48;-3.30;99.90
3478;DHT22;37937;61.490;23.506;2022-12-11T09:36:13;-3.30;99.90
3478;DHT22;37937;61.490;23.506;2022-12-11T09:38:39;-3.40;99.90
3478;DHT22;37937;61.490;23.506;2022-12-11T09:44:00;-3.40;99.90
3478;DHT22;37937;61.490;23.506;2022-12-11T09:46:26;-3.40;99.90
3478;DHT22;37937;61.490;23.506;2022-12-11T09:48:53;-3.40;99.90
3478;DHT22;37937;61.490;23.506;2022-12-11T09:53:47;-3.40;99.90
3478;DHT22;37937;61.490;23.506;2022-12-11T09:56:15;-3.40;99.90
3478;DHT22;37937;61.490;23.506;2022-12-11T10:02:10;-3.30;99.90
3478;DHT22;37937;61.490;23.506;2022-12-11T10:04:18;-3.40;99.90
3478;DHT22;37937;61.490;23.506;2022-12-11T10:14:41;-3.40;99.90
3478;DHT22;37937;61.490;23.506;2022-12-11T10:19:37;-3.40;99.90
3478;DHT22;37937;61.490;23.506;2022-12-11T10:22:07;-3.30;99.90
3478;DHT22;37937;61.490;23.506;2022-12-11T10:24:41;-3.30;99.90
3478;DHT22;37937;61.490;23.506;2022-12-11T10:27:13;-3.40;99.90
3478;DHT22;37937;61.490;23.506;2022-12-11T10:29:39;-3.40;99.90
3478;DHT22;37937;61.490;23.506;2022-12-11T10:32:05;-3.40;99.90
3478;DHT22;37937;61.490;23.506;2022-12-11T10:34:36;-3.40;99.90
3478;DHT22;37937;61.490;23.506;2022-12-11T10:37:04;-3.40;99.90
3478;DHT22;37937;61.490;23.506;2022-12-11T10:39:29;-3.40;99.90
3478;DHT22;37937;61.490;23.506;2022-12-11T10:41:56;-3.40;99.90
3478;DHT22;37937;61.490;23.506;2022-12-11T10:44:26;-3.40;99.90
3478;DHT22;37937;61.490;23.506;2022-12-11T10:49:28;-3.40;99.90
3478;DHT22;37937;61.490;23.506;2022-12-11T10:51:54;-3.40;99.90
3478;DHT22;37937;61.490;23.506;2022-12-11T10:56:47;-3.40;99.90
3478;DHT22;37937;61.490;23.506;2022-12-11T10:59:21;-3.40;99.90
3478;DHT22;37937;61.490;23.506;2022-12-11T11:01:48;-3.30;99.90
3478;DHT22;37937;61.490;23.506;2022-12-11T11:04:25;-3.30;99.90
3478;DHT22;37937;61.490;23.506;2022-12-11T11:09:33;-3.30;99.90
3478;DHT22;37937;61.490;23.506;2022-12-11T11:11:59;-3.30;99.90
3478;DHT22;37937;61.490;23.506;2022-12-11T11:14:25;-3.30;99.90
3478;DHT22;37937;61.490;23.506;2022-12-11T11:16:52;-3.30;99.90
3478;DHT22;37937;61.490;23.506;2022-12-11T11:19:23;-3.30;99.90
3478;DHT22;37937;61.490;23.506;2022-12-11T11:21:51;-3.30;99.90
3478;DHT22;37937;61.490;23.506;2022-12-11T11:24:23;-3.30;99.90
3478;DHT22;37937;61.490;23.506;2022-12-11T11:26:49;-3.40;99.90
3478;DHT22;37937;61.490;23.506;2022-12-11T11:29:30;-3.30;99.90
3478;DHT22;37937;61.490;23.506;2022-12-11T11:32:02;-3.30;99.90
3478;DHT22;37937;61.490;23.506;2022-12-11T11:34:37;-3.40;99.90
3478;DHT22;37937;61.490;23.506;2022-12-11T11:37:03;-3.40;99.90
3478;DHT22;37937;61.490;23.506;2022-12-11T11:39:36;-3.40;99.90
3478;DHT22;37937;61.490;23.506;2022-12-11T11:42:09;-3.40;99.90
3478;DHT22;37937;61.490;23.506;2022-12-11T11:44:40;-3.40;99.90
3478;DHT22;37937;61.490;23.506;2022-12-11T11:47:12;-3.50;99.90
3478;DHT22;37937;61.490;23.506;2022-12-11T11:49:43;-3.50;99.90
3478;DHT22;37937;61.490;23.506;2022-12-11T11:52:14;-3.50;99.90
3478;DHT22;37937;61.490;23.506;2022-12-11T11:54:46;-3.50;99.90
3478;DHT22;37937;61.490;23.506;2022-12-11T11:57:17;-3.40;99.90
3478;DHT22;37937;61.490;23.506;2022-12-11T11:59:53;-3.30;99.90
3478;DHT22;37937;61.490;23.506;2022-12-11T12:02:20;-3.30;99.90
3478;DHT22;37937;61.490;23.506;2022-12-11T12:04:46;-3.30;99.90
3478;DHT22;37937;61.490;23.506;2022-12-11T12:12:38;-3.40;99.90
3478;DHT22;37937;61.490;23.506;2022-12-11T12:18:02;-3.50;99.90
3478;DHT22;37937;61.490;23.506;2022-12-11T12:20:47;-3.60;99.90
3478;DHT22;37937;61.490;23.506;2022-12-11T12:33:30;-3.60;99.90
3478;DHT22;37937;61.490;23.506;2022-12-11T12:38:27;-3.60;99.90
3478;DHT22;37937;61.490;23.506;2022-12-11T12:46:26;-3.60;99.90
3478;DHT22;37937;61.490;23.506;2022-12-11T12:48:53;-3.60;99.90
3478;DHT22;37937;61.490;23.506;2022-12-11T12:51:19;-3.60;99.90
3478;DHT22;37937;61.490;23.506;2022-12-11T12:53:47;-3.50;99.90
3478;DHT22;37937;61.490;23.506;2022-12-11T12:56:13;-3.50;99.90
3478;DHT22;37937;61.490;23.506;2022-12-11T12:58:43;-3.50;99.90
3478;DHT22;37937;61.490;23.506;2022-12-11T13:08:53;-3.50;99.90
3478;DHT22;37937;61.490;23.506;2022-12-11T13:11:19;-3.40;99.90
3478;DHT22;37937;61.490;23.506;2022-12-11T13:14:00;-3.50;99.90
3478;DHT22;37937;61.490;23.506;2022-12-11T13:16:33;-3.50;99.90
3478;DHT22;37937;61.490;23.506;2022-12-11T13:18:59;-3.50;99.90
3478;DHT22;37937;61.490;23.506;2022-12-11T13:21:30;-3.50;99.90
3478;DHT22;37937;61.490;23.506;2022-12-11T13:26:40;-3.50;99.90
3478;DHT22;37937;61.490;23.506;2022-12-11T13:29:26;-3.50;99.90
3478;DHT22;37937;61.490;23.506;2022-12-11T13:31:55;-3.50;99.90
3478;DHT22;37937;61.490;23.506;2022-12-11T13:34:21;-3.50;99.90
3478;DHT22;37937;61.490;23.506;2022-12-11T13:36:48;-3.50;99.90
3478;DHT22;37937;61.490;23.506;2022-12-11T13:39:16;-3.50;99.90
3478;DHT22;37937;61.490;23.506;2022-12-11T13:41:43;-3.50;99.90
3478;DHT22;37937;61.490;23.506;2022-12-11T13:44:11;-3.50;99.90
3478;DHT22;37937;61.490;23.506;2022-12-11T13:46:39;-3.50;99.90
3478;DHT22;37937;61.490;23.506;2022-12-11T13:49:05;-3.50;99.90
3478;DHT22;37937;61.490;23.506;2022-12-11T13:51:31;-3.50;99.90
3478;DHT22;37937;61.490;23.506;2022-12-11T13:56:27;-3.40;99.90
3478;DHT22;37937;61.490;23.506;2022-12-11T13:58:53;-3.50;99.90
3478;DHT22;37937;61.490;23.506;2022-12-11T14:01:23;-3.50;99.90
3478;DHT22;37937;61.490;23.506;2022-12-11T14:06:20;-3.50;99.90
3478;DHT22;37937;61.490;23.506;2022-12-11T14:08:47;-3.50;99.90
3478;DHT22;37937;61.490;23.506;2022-12-11T14:11:23;-3.60;99.90
3478;DHT22;37937;61.490;23.506;2022-12-11T14:13:52;-3.60;99.90
3478;DHT22;37937;61.490;23.506;2022-12-11T14:16:19;-3.60;99.90
3478;DHT22;37937;61.490;23.506;2022-12-11T14:18:46;-3.60;99.90
3478;DHT22;37937;61.490;23.506;2022-12-11T14:21:17;-3.60;99.90
3478;DHT22;37937;61.490;23.506;2022-12-11T14:23:49;-3.60;99.90
3478;DHT22;37937;61.490;23.506;2022-12-11T14:26:16;-3.60;99.90
3478;DHT22;37937;61.490;23.506;2022-12-11T14:28:43;-3.60;99.90
3478;DHT22;37937;61.490;23.506;2022-12-11T14:31:08;-3.60;99.90
3478;DHT22;37937;61.490;23.506;2022-12-11T14:33:37;-3.60;99.90
3478;DHT22;37937;61.490;23.506;2022-12-11T14:36:05;-3.60;99.90
3478;DHT22;37937;61.490;23.506;2022-12-11T14:41:05;-3.60;99.90
3478;DHT22;37937;61.490;23.506;2022-12-11T14:43:32;-3.60;99.90
3478;DHT22;37937;61.490;23.506;2022-12-11T14:46:01;-3.60;99.90
3478;DHT22;37937;61.490;23.506;2022-12-11T14:48:34;-3.80;99.90
3478;DHT22;37937;61.490;23.506;2022-12-11T14:51:02;-3.70;99.90
3478;DHT22;37937;61.490;23.506;2022-12-11T14:53:35;-3.70;99.90
3478;DHT22;37937;61.490;23.506;2022-12-11T14:56:03;-3.70;99.90
3478;DHT22;37937;61.490;23.506;2022-12-11T14:58:30;-3.80;99.90
3478;DHT22;37937;61.490;23.506;2022-12-11T15:01:00;-3.80;99.90
3478;DHT22;37937;61.490;23.506;2022-12-11T15:03:36;-3.80;99.90
3478;DHT22;37937;61.490;23.506;2022-12-11T15:06:02;-3.80;99.90
3478;DHT22;37937;61.490;23.506;2022-12-11T15:08:44;-3.80;99.90
3478;DHT22;37937;61.490;23.506;2022-12-11T15:11:13;-3.80;99.90
3478;DHT22;37937;61.490;23.506;2022-12-11T15:16:17;-3.80;99.90
3478;DHT22;37937;61.490;23.506;2022-12-11T15:18:46;-3.80;99.90
3478;DHT22;37937;61.490;23.506;2022-12-11T15:21:12;-3.90;99.90
3478;DHT22;37937;61.490;23.506;2022-12-11T15:23:51;-3.90;99.90
3478;DHT22;37937;61.490;23.506;2022-12-11T15:26:18;-3.80;99.90
3478;DHT22;37937;61.490;23.506;2022-12-11T15:28:43;-3.90;99.90
3478;DHT22;37937;61.490;23.506;2022-12-11T15:33:47;-3.90;99.90
3478;DHT22;37937;61.490;23.506;2022-12-11T15:38:53;-3.90;99.90
3478;DHT22;37937;61.490;23.506;2022-12-11T15:41:19;-3.90;99.90
3478;DHT22;37937;61.490;23.506;2022-12-11T15:43:51;-3.90;99.90
3478;DHT22;37937;61.490;23.506;2022-12-11T15:46:17;-3.90;99.90
3478;DHT22;37937;61.490;23.506;2022-12-11T15:48:43;-3.90;99.90
3478;DHT22;37937;61.490;23.506;2022-12-11T15:51:09;-3.90;99.90
3478;DHT22;37937;61.490;23.506;2022-12-11T15:53:34;-3.90;99.90
3478;DHT22;37937;61.490;23.506;2022-12-11T15:56:00;-3.90;99.90
3478;DHT22;37937;61.490;23.506;2022-12-11T15:58:26;-3.90;99.90
3478;DHT22;37937;61.490;23.506;2022-12-11T16:00:52;-3.90;99.90
3478;DHT22;37937;61.490;23.506;2022-12-11T16:03:18;-3.90;99.90
3478;DHT22;37937;61.490;23.506;2022-12-11T16:05:44;-3.90;99.90
3478;DHT22;37937;61.490;23.506;2022-12-11T16:08:14;-3.90;99.90
3478;DHT22;37937;61.490;23.506;2022-12-11T16:10:40;-3.90;99.90
3478;DHT22;37937;61.490;23.506;2022-12-11T16:13:07;-4.00;99.90
3478;DHT22;37937;61.490;23.506;2022-12-11T16:15:33;-3.90;99.90
3478;DHT22;37937;61.490;23.506;2022-12-11T16:18:06;-4.00;99.90
3478;DHT22;37937;61.490;23.506;2022-12-11T16:20:32;-3.90;99.90
3478;DHT22;37937;61.490;23.506;2022-12-11T16:22:58;-3.90;99.90
3478;DHT22;37937;61.490;23.506;2022-12-11T16:25:25;-3.90;99.90
3478;DHT22;37937;61.490;23.506;2022-12-11T16:27:50;-4.00;99.90
3478;DHT22;37937;61.490;23.506;2022-12-11T16:30:18;-3.90;99.90
3478;DHT22;37937;61.490;23.506;2022-12-11T16:32:44;-3.90;99.90
3478;DHT22;37937;61.490;23.506;2022-12-11T16:35:10;-3.90;99.90
3478;DHT22;37937;61.490;23.506;2022-12-11T16:37:35;-3.90;99.90
3478;DHT22;37937;61.490;23.506;2022-12-11T16:40:02;-3.90;99.90
3478;DHT22;37937;61.490;23.506;2022-12-11T16:42:31;-3.90;99.90
3478;DHT22;37937;61.490;23.506;2022-12-11T16:45:01;-3.90;99.90
3478;DHT22;37937;61.490;23.506;2022-12-11T16:47:28;-3.90;99.90
3478;DHT22;37937;61.490;23.506;2022-12-11T16:49:55;-3.90;99.90
3478;DHT22;37937;61.490;23.506;2022-12-11T16:52:21;-3.90;99.90
3478;DHT22;37937;61.490;23.506;2022-12-11T16:54:47;-3.90;99.90
3478;DHT22;37937;61.490;23.506;2022-12-11T16:57:13;-3.90;99.90
3478;DHT22;37937;61.490;23.506;2022-12-11T16:59:38;-3.90;99.90
3478;DHT22;37937;61.490;23.506;2022-12-11T17:02:04;-3.90;99.90
3478;DHT22;37937;61.490;23.506;2022-12-11T17:04:29;-3.90;99.90
3478;DHT22;37937;61.490;23.506;2022-12-11T17:06:55;-3.90;99.90
3478;DHT22;37937;61.490;23.506;2022-12-11T17:09:20;-3.80;99.90